Time;durP1;ratioP1;P1;durP2;ratioP2;P2;SDS_P1;SDS_P2;PMS_P1;PMS_P2;Temp;Humidity;BMP_temperature;BMP_pressure;BME280_temperature;BME280_humidity;BME280_pressure;Samples;Min_cycle;Max_cycle;Signal;HPM_P1;HPM_P2
2021/12/06 00:00:29;;;;;;;23.20;13.38;;;0.50;99.90;;;;;;5092689;28;20043;-67
2021/12/06 00:03:02;;;;;;;24.63;13.63;;;0.60;99.90;;;;;;5084161;28;20135;-67
2021/12/06 00:05:30;;;;;;;21.65;13.10;;;0.60;99.90;;;;;;5106618;28;20047;-67
2021/12/06 00:07:58;;;;;;;18.42;11.70;;;0.70;99.90;;;;;;5090564;28;20166;-68
2021/12/06 00:10:25;;;;;;;19.77;11.63;;;0.70;99.90;;;;;;5089412;28;20109;-67
2021/12/06 00:12:52;;;;;;;23.10;11.80;;;0.80;99.90;;;;;;5090663;28;20055;-68
2021/12/06 00:15:20;;;;;;;19.45;11.25;;;0.80;99.90;;;;;;5081571;28;20039;-67
2021/12/06 00:17:47;;;;;;;19.35;12.13;;;0.80;99.90;;;;;;5092560;28;20046;-68
2021/12/06 00:20:18;;;;;;;18.55;10.77;;;0.80;99.90;;;;;;5104621;28;20044;-67
2021/12/06 00:22:47;;;;;;;20.17;11.35;;;0.80;99.90;;;;;;5090378;28;20044;-67
2021/12/06 00:25:15;;;;;;;17.17;10.68;;;0.90;99.90;;;;;;5072392;28;20044;-67
2021/12/06 00:27:42;;;;;;;20.63;11.45;;;0.90;99.90;;;;;;5090807;28;20039;-67
2021/12/06 00:30:17;;;;;;;20.00;12.07;;;0.90;99.90;;;;;;5051477;28;20052;-67
2021/12/06 00:32:46;;;;;;;18.83;11.23;;;1.00;99.90;;;;;;5104452;28;20460;-68
2021/12/06 00:35:20;;;;;;;18.60;11.32;;;1.00;99.90;;;;;;5080131;28;20188;-68
2021/12/06 00:37:56;;;;;;;19.20;10.98;;;1.00;99.90;;;;;;5058555;28;20040;-68
2021/12/06 00:40:29;;;;;;;19.45;11.75;;;1.00;99.90;;;;;;5098099;28;20040;-67
2021/12/06 00:42:57;;;;;;;16.23;10.65;;;1.10;99.90;;;;;;5071970;28;20048;-68
2021/12/06 00:45:25;;;;;;;20.27;11.50;;;1.10;99.90;;;;;;5097882;28;20560;-68
2021/12/06 00:47:52;;;;;;;16.27;10.43;;;1.20;99.90;;;;;;5069392;28;20044;-68
2021/12/06 00:50:22;;;;;;;16.67;10.77;;;1.20;99.90;;;;;;5069997;28;20040;-68
2021/12/06 00:52:50;;;;;;;14.75;9.55;;;1.20;99.90;;;;;;5075779;28;20059;-67
2021/12/06 00:55:19;;;;;;;18.73;10.48;;;1.20;99.90;;;;;;5090366;28;20034;-67
2021/12/06 00:57:48;;;;;;;17.52;10.05;;;1.20;99.90;;;;;;5080732;28;20441;-67
2021/12/06 01:00:39;;;;;;;16.58;9.93;;;1.20;99.90;;;;;;5112229;28;20063;-67
2021/12/06 01:03:14;;;;;;;14.32;9.10;;;1.30;99.90;;;;;;5091900;28;20044;-67
2021/12/06 01:05:43;;;;;;;16.80;9.90;;;1.20;99.90;;;;;;5112878;28;20724;-68
2021/12/06 01:08:11;;;;;;;15.32;9.30;;;1.30;99.90;;;;;;5083901;28;20054;-67
2021/12/06 01:10:39;;;;;;;16.60;9.68;;;1.30;99.90;;;;;;5101127;28;20040;-67
2021/12/06 01:13:07;;;;;;;15.75;9.25;;;1.30;99.90;;;;;;5109463;28;20048;-68
2021/12/06 01:15:36;;;;;;;14.02;9.07;;;1.30;99.90;;;;;;5087844;28;20051;-67
2021/12/06 01:18:06;;;;;;;14.45;9.27;;;1.30;99.90;;;;;;5113822;28;20032;-67
2021/12/06 01:20:47;;;;;;;16.83;9.93;;;1.30;99.90;;;;;;5086270;28;20619;-67
2021/12/06 01:23:17;;;;;;;14.63;10.13;;;1.30;99.90;;;;;;5106280;28;20390;-68
2021/12/06 01:28:57;;;;;;;19.20;9.23;;;1.40;99.90;;;;;;5094958;28;20035;-67
2021/12/06 01:31:19;;;;;;;14.13;8.90;;;1.30;99.90;;;;;;5089558;28;20043;-67
2021/12/06 01:39:18;;;;;;;16.15;9.35;;;1.30;99.90;;;;;;5082784;28;20476;-67
2021/12/06 01:41:54;;;;;;;;;;;1.30;99.90;;;;;;5095323;28;20097;-67
2021/12/06 01:44:27;;;;;;;14.52;8.75;;;1.30;99.90;;;;;;5088681;28;19924;-68
2021/12/06 01:47:16;;;;;;;18.20;10.55;;;1.30;99.90;;;;;;5095748;28;20035;-67
2021/12/06 01:49:54;;;;;;;15.60;9.30;;;1.30;99.90;;;;;;5095294;28;20046;-67
2021/12/06 01:52:29;;;;;;;16.05;9.70;;;1.40;99.90;;;;;;5082183;28;20046;-67
2021/12/06 01:54:58;;;;;;;;;;;1.40;99.90;;;;;;5075623;28;20043;-67
2021/12/06 01:57:27;;;;;;;13.52;8.25;;;1.30;99.90;;;;;;5078281;28;19927;-67
2021/12/06 01:59:56;;;;;;;13.55;8.60;;;1.30;99.90;;;;;;5081278;28;20043;-67
2021/12/06 02:02:25;;;;;;;14.73;9.00;;;1.30;99.90;;;;;;5088611;28;20032;-67
2021/12/06 02:04:53;;;;;;;12.85;8.38;;;1.40;99.90;;;;;;5089327;28;20040;-67
2021/12/06 02:07:25;;;;;;;14.63;8.82;;;1.40;99.90;;;;;;5083068;28;20120;-67
2021/12/06 02:09:56;;;;;;;14.02;8.23;;;1.50;99.90;;;;;;5065668;28;20233;-67
2021/12/06 02:12:29;;;;;;;14.77;8.63;;;1.50;99.90;;;;;;5087237;28;20067;-68
2021/12/06 02:15:05;;;;;;;16.15;9.23;;;1.50;99.90;;;;;;5095688;28;20115;-67
2021/12/06 02:17:39;;;;;;;15.35;9.00;;;1.40;99.90;;;;;;5095608;28;20490;-67
2021/12/06 02:20:23;;;;;;;14.48;9.38;;;1.50;99.90;;;;;;5091231;28;20513;-67
2021/12/06 02:22:51;;;;;;;13.38;8.07;;;1.50;99.90;;;;;;5088843;28;20107;-67
2021/12/06 02:25:19;;;;;;;13.98;8.45;;;1.50;99.90;;;;;;5107469;28;20043;-67
2021/12/06 02:27:51;;;;;;;12.18;8.45;;;1.50;99.90;;;;;;5094851;28;20043;-66
2021/12/06 02:30:21;;;;;;;13.93;8.65;;;1.40;99.90;;;;;;5090570;28;20066;-68
2021/12/06 02:32:50;;;;;;;13.05;8.07;;;1.40;99.90;;;;;;5113676;28;20044;-67
2021/12/06 02:35:20;;;;;;;12.05;8.43;;;1.50;99.90;;;;;;5090742;28;20096;-67
2021/12/06 02:37:51;;;;;;;15.40;9.30;;;1.40;99.90;;;;;;5094727;28;20112;-67
2021/12/06 02:40:23;;;;;;;12.93;8.95;;;1.40;99.90;;;;;;5093610;28;20067;-68
2021/12/06 02:42:51;;;;;;;13.68;8.93;;;1.40;99.90;;;;;;5080891;28;20075;-67
2021/12/06 02:45:24;;;;;;;13.05;8.45;;;1.30;99.90;;;;;;5087969;28;20105;-67
2021/12/06 02:47:58;;;;;;;13.00;8.77;;;1.40;99.90;;;;;;5110896;28;20498;-68
2021/12/06 02:50:37;;;;;;;13.60;8.85;;;1.40;99.90;;;;;;5100116;28;20067;-68
2021/12/06 02:53:05;;;;;;;14.30;9.20;;;1.40;99.90;;;;;;5112870;28;20039;-68
2021/12/06 02:55:37;;;;;;;12.68;8.23;;;1.40;99.90;;;;;;5094579;28;20128;-68
2021/12/06 02:58:22;;;;;;;13.85;8.40;;;1.40;99.90;;;;;;5094020;28;20044;-68
2021/12/06 03:00:54;;;;;;;16.52;9.18;;;1.30;99.90;;;;;;5094430;28;20035;-68
2021/12/06 03:03:23;;;;;;;15.10;9.38;;;1.30;99.90;;;;;;5082439;28;20032;-68
2021/12/06 03:05:52;;;;;;;17.15;11.07;;;1.30;99.90;;;;;;5060406;28;20049;-68
2021/12/06 03:08:38;;;;;;;25.73;13.15;;;1.20;99.90;;;;;;5076701;28;20054;-68
2021/12/06 03:11:10;;;;;;;20.90;12.32;;;1.20;99.90;;;;;;5094388;28;20032;-68
2021/12/06 03:13:39;;;;;;;23.45;12.85;;;1.10;99.90;;;;;;5102180;28;20051;-68
2021/12/06 03:16:07;;;;;;;26.08;13.75;;;1.00;99.90;;;;;;5089114;28;20043;-68
2021/12/06 03:18:35;;;;;;;22.48;13.73;;;1.10;99.90;;;;;;5078912;28;20028;-68
2021/12/06 03:21:04;;;;;;;22.70;13.60;;;1.00;99.90;;;;;;5056939;28;20472;-72
2021/12/06 03:23:31;;;;;;;21.33;13.48;;;0.90;99.90;;;;;;5092336;28;20109;-70
2021/12/06 03:26:00;;;;;;;19.40;13.05;;;1.00;99.90;;;;;;5079834;28;20383;-71
2021/12/06 03:28:28;;;;;;;22.58;12.57;;;0.90;99.90;;;;;;5084373;28;20506;-70
2021/12/06 03:30:56;;;;;;;18.15;11.02;;;0.90;99.90;;;;;;5096999;28;20871;-70
2021/12/06 03:33:24;;;;;;;17.65;10.48;;;0.90;99.90;;;;;;5091679;28;20044;-70
2021/12/06 03:35:52;;;;;;;15.60;9.32;;;0.80;99.90;;;;;;5092348;28;20067;-70
2021/12/06 03:38:19;;;;;;;15.70;8.77;;;0.90;99.90;;;;;;5073139;28;20115;-69
2021/12/06 03:40:48;;;;;;;12.93;8.60;;;0.80;99.90;;;;;;5077632;28;20040;-70
2021/12/06 03:43:15;;;;;;;11.57;7.75;;;0.80;99.90;;;;;;5093876;28;20035;-70
2021/12/06 03:45:43;;;;;;;13.18;8.95;;;0.80;99.90;;;;;;5078761;28;20040;-70
2021/12/06 03:48:11;;;;;;;12.95;8.38;;;0.80;99.90;;;;;;5081396;28;20143;-70
2021/12/06 03:50:38;;;;;;;12.57;8.35;;;0.80;99.90;;;;;;5089936;28;20040;-70
2021/12/06 03:53:07;;;;;;;11.70;8.30;;;0.80;99.90;;;;;;5086270;28;20047;-70
2021/12/06 03:55:35;;;;;;;14.55;7.65;;;0.70;99.90;;;;;;5091877;28;20610;-70
2021/12/06 03:58:04;;;;;;;12.90;8.18;;;0.80;99.90;;;;;;5091334;28;20044;-70
2021/12/06 04:00:33;;;;;;;16.65;8.20;;;0.80;99.90;;;;;;5104576;28;20055;-70
2021/12/06 04:03:01;;;;;;;16.20;8.95;;;0.80;99.90;;;;;;5084023;28;20097;-70
2021/12/06 04:05:29;;;;;;;12.63;8.20;;;0.80;99.90;;;;;;5091674;28;20036;-70
2021/12/06 04:07:57;;;;;;;18.05;8.80;;;0.80;99.90;;;;;;5080736;28;20066;-70
2021/12/06 04:10:26;;;;;;;15.25;8.13;;;0.80;99.90;;;;;;5089077;28;20772;-71
2021/12/06 04:12:59;;;;;;;12.90;8.88;;;0.80;99.90;;;;;;5075070;28;20036;-70
2021/12/06 04:15:30;;;;;;;12.60;8.35;;;0.80;99.90;;;;;;5091352;28;20108;-70
2021/12/06 04:17:59;;;;;;;13.60;8.63;;;0.80;99.90;;;;;;5073766;28;20044;-70
2021/12/06 04:20:27;;;;;;;12.63;7.55;;;0.80;99.90;;;;;;5076378;28;20778;-70
2021/12/06 04:22:56;;;;;;;15.98;9.00;;;0.70;99.90;;;;;;5075547;28;20046;-70
2021/12/06 04:25:24;;;;;;;15.10;8.45;;;0.70;99.90;;;;;;5077809;28;20591;-70
2021/12/06 04:27:56;;;;;;;14.07;9.05;;;0.70;99.90;;;;;;5092572;28;20048;-70
2021/12/06 04:30:26;;;;;;;13.40;9.07;;;0.70;99.90;;;;;;5108480;28;20040;-70
2021/12/06 04:32:55;;;;;;;15.00;9.18;;;0.70;99.90;;;;;;5079376;28;20043;-70
2021/12/06 04:35:24;;;;;;;16.05;9.65;;;0.70;99.90;;;;;;5089494;28;20047;-70
2021/12/06 04:37:51;;;;;;;15.35;9.07;;;0.70;99.90;;;;;;5083612;28;20136;-70
2021/12/06 04:40:19;;;;;;;16.50;9.40;;;0.80;99.90;;;;;;5097204;28;20065;-70
2021/12/06 04:42:47;;;;;;;15.57;9.52;;;0.80;99.90;;;;;;5086700;28;20116;-70
2021/12/06 04:45:15;;;;;;;14.45;9.07;;;0.80;99.90;;;;;;5029739;28;1185185;-70
2021/12/06 04:47:43;;;;;;;15.43;9.45;;;0.80;99.90;;;;;;5081293;28;20043;-70
2021/12/06 04:50:13;;;;;;;21.17;10.40;;;0.80;99.90;;;;;;5063693;28;20097;-70
2021/12/06 04:52:40;;;;;;;18.67;10.02;;;0.80;99.90;;;;;;5107439;28;20097;-70
2021/12/06 04:55:21;;;;;;;23.60;13.30;;;0.80;99.90;;;;;;5072494;28;20036;-70
2021/12/06 04:57:48;;;;;;;19.02;11.32;;;0.80;99.90;;;;;;5071392;28;20070;-70
2021/12/06 05:00:42;;;;;;;18.90;10.15;;;0.90;99.90;;;;;;5076740;28;20031;-70
2021/12/06 05:03:10;;;;;;;18.42;9.98;;;0.80;99.90;;;;;;5073064;28;20032;-70
2021/12/06 05:05:47;;;;;;;17.55;10.25;;;0.80;99.90;;;;;;5087088;28;20127;-70
2021/12/06 05:08:29;;;;;;;15.23;9.93;;;0.80;99.90;;;;;;5057835;28;20159;-70
2021/12/06 05:10:58;;;;;;;16.90;10.02;;;0.80;99.90;;;;;;5076596;28;20109;-70
2021/12/06 05:13:27;;;;;;;17.38;9.52;;;0.90;99.90;;;;;;5079425;28;20058;-70
2021/12/06 05:15:57;;;;;;;17.02;9.35;;;0.90;99.90;;;;;;5078043;28;20521;-70
2021/12/06 05:18:26;;;;;;;20.27;10.93;;;0.90;99.90;;;;;;5077437;28;20040;-70
2021/12/06 05:20:54;;;;;;;16.08;10.20;;;0.90;99.90;;;;;;5091755;28;20123;-70
2021/12/06 05:23:22;;;;;;;17.88;9.82;;;0.90;99.90;;;;;;5060449;28;20115;-70
2021/12/06 05:25:50;;;;;;;16.85;9.18;;;0.90;99.90;;;;;;5070171;28;20101;-70
2021/12/06 05:28:22;;;;;;;14.93;8.55;;;0.90;99.90;;;;;;5099525;28;20048;-70
2021/12/06 05:30:54;;;;;;;;;;;0.90;99.90;;;;;;5084834;28;20044;-70
2021/12/06 05:33:29;;;;;;;15.25;9.20;;;0.90;99.90;;;;;;5071624;28;19920;-70
2021/12/06 05:36:02;;;;;;;15.50;9.18;;;0.90;99.90;;;;;;5076286;28;20055;-70
2021/12/06 05:38:29;;;;;;;15.63;7.97;;;0.90;99.90;;;;;;5099303;28;20067;-70
2021/12/06 05:40:57;;;;;;;16.10;10.50;;;0.90;99.90;;;;;;5103085;28;20051;-69
2021/12/06 05:43:25;;;;;;;18.95;10.73;;;0.90;99.90;;;;;;5081339;28;20054;-70
2021/12/06 05:45:53;;;;;;;16.52;10.93;;;0.90;99.90;;;;;;5093472;28;20055;-70
2021/12/06 05:48:21;;;;;;;15.88;10.07;;;0.90;99.90;;;;;;5077656;28;20134;-70
2021/12/06 05:50:50;;;;;;;17.00;10.82;;;0.90;99.90;;;;;;5112925;28;20056;-70
2021/12/06 05:53:18;;;;;;;19.00;11.30;;;0.90;99.90;;;;;;5102874;28;20052;-69
2021/12/06 05:55:46;;;;;;;18.15;10.68;;;0.90;99.90;;;;;;5102150;28;20050;-69
2021/12/06 05:58:16;;;;;;;18.80;11.23;;;0.90;99.90;;;;;;5083008;28;20043;-69
2021/12/06 06:00:44;;;;;;;21.45;12.27;;;0.90;99.90;;;;;;5108510;28;20058;-69
2021/12/06 06:03:11;;;;;;;21.80;12.52;;;0.90;99.90;;;;;;5104324;28;20494;-69
2021/12/06 06:05:39;;;;;;;22.45;12.45;;;0.90;99.90;;;;;;5113641;28;20113;-70
2021/12/06 06:08:07;;;;;;;19.50;12.50;;;0.90;99.90;;;;;;5100932;28;20048;-69
2021/12/06 06:10:35;;;;;;;20.40;11.45;;;0.90;99.90;;;;;;5107755;28;20036;-69
2021/12/06 06:13:05;;;;;;;21.63;11.57;;;0.90;99.90;;;;;;5104913;28;20074;-69
2021/12/06 06:15:32;;;;;;;20.05;12.40;;;0.90;99.90;;;;;;5099397;28;20043;-69
2021/12/06 06:18:01;;;;;;;23.95;13.85;;;1.00;99.90;;;;;;5086654;28;20460;-69
2021/12/06 06:20:36;;;;;;;34.20;17.27;;;1.00;99.90;;;;;;5113486;28;20050;-70
2021/12/06 06:23:04;;;;;;;30.90;17.75;;;1.00;99.90;;;;;;5113682;28;20043;-69
2021/12/06 06:25:32;;;;;;;29.80;15.63;;;1.00;99.90;;;;;;5113093;28;20086;-69
2021/12/06 06:28:00;;;;;;;28.73;15.82;;;1.10;99.90;;;;;;5094979;28;20138;-69
2021/12/06 06:30:27;;;;;;;30.90;16.70;;;1.10;99.90;;;;;;5108296;28;20044;-70
2021/12/06 06:32:54;;;;;;;31.05;17.30;;;1.10;99.90;;;;;;5104746;28;20039;-70
2021/12/06 06:35:24;;;;;;;29.60;16.27;;;1.10;99.90;;;;;;5112602;28;20435;-69
2021/12/06 06:37:52;;;;;;;27.27;14.73;;;1.20;99.90;;;;;;5112571;28;20493;-69
2021/12/06 06:40:20;;;;;;;29.98;18.00;;;1.20;99.90;;;;;;5112840;28;20402;-69
2021/12/06 06:42:48;;;;;;;28.55;16.92;;;1.20;99.90;;;;;;5104523;28;20486;-69
2021/12/06 06:45:18;;;;;;;27.75;16.52;;;1.20;99.90;;;;;;5098523;28;20398;-69
2021/12/06 06:47:46;;;;;;;33.60;18.55;;;1.20;99.90;;;;;;5106639;28;20037;-69
2021/12/06 06:50:15;;;;;;;43.00;20.83;;;1.20;99.90;;;;;;5113431;28;20023;-67
2021/12/06 06:52:43;;;;;;;40.13;21.35;;;1.30;99.90;;;;;;5106910;28;20051;-66
2021/12/06 06:55:11;;;;;;;39.30;20.40;;;1.30;99.90;;;;;;5105175;28;20478;-66
2021/12/06 06:57:40;;;;;;;40.33;20.83;;;1.30;99.90;;;;;;5106621;28;20036;-66
2021/12/06 07:00:14;;;;;;;37.65;18.63;;;1.30;99.90;;;;;;5109460;28;20040;-66
2021/12/06 07:02:42;;;;;;;36.42;19.00;;;1.30;99.90;;;;;;5096579;28;20036;-66
2021/12/06 07:05:10;;;;;;;34.47;18.38;;;1.20;99.90;;;;;;5110873;28;20071;-66
2021/12/06 07:07:38;;;;;;;33.97;18.00;;;1.20;99.90;;;;;;5105368;28;20039;-66
2021/12/06 07:10:06;;;;;;;33.17;18.73;;;1.20;99.90;;;;;;5105240;28;20036;-66
2021/12/06 07:12:41;;;;;;;33.38;19.10;;;1.20;99.90;;;;;;5104828;28;20090;-67
2021/12/06 07:15:11;;;;;;;34.80;18.95;;;1.20;99.90;;;;;;5094289;28;20425;-66
2021/12/06 07:17:40;;;;;;;37.58;22.33;;;1.30;99.90;;;;;;5110036;28;20054;-66
2021/12/06 07:20:09;;;;;;;37.38;20.08;;;1.20;99.90;;;;;;5110454;28;20474;-66
2021/12/06 07:22:37;;;;;;;32.22;19.42;;;1.20;99.90;;;;;;5105602;28;20429;-66
2021/12/06 07:25:06;;;;;;;37.33;19.50;;;1.20;99.90;;;;;;5112348;28;20062;-66
2021/12/06 07:27:33;;;;;;;34.58;19.08;;;1.20;99.90;;;;;;5093874;28;20036;-66
2021/12/06 07:30:02;;;;;;;38.03;20.58;;;1.30;99.90;;;;;;5105037;28;20615;-66
2021/12/06 07:32:30;;;;;;;34.85;19.52;;;1.30;99.90;;;;;;5109269;28;20440;-66
2021/12/06 07:34:57;;;;;;;35.65;19.67;;;1.30;99.90;;;;;;5094124;28;20413;-66
2021/12/06 07:37:24;;;;;;;39.55;20.63;;;1.30;99.90;;;;;;5110329;28;20050;-66
2021/12/06 07:39:52;;;;;;;37.85;19.55;;;1.40;99.90;;;;;;5102745;28;20052;-66
2021/12/06 07:42:19;;;;;;;41.63;21.67;;;1.40;99.90;;;;;;5103805;28;20118;-66
2021/12/06 07:44:47;;;;;;;38.95;20.02;;;1.50;99.90;;;;;;5112292;28;20031;-66
2021/12/06 07:47:14;;;;;;;41.05;22.00;;;1.50;99.90;;;;;;5091204;28;20043;-66
2021/12/06 07:49:45;;;;;;;44.67;22.55;;;1.50;99.90;;;;;;5111707;28;20131;-66
2021/12/06 07:52:26;;;;;;;39.55;21.38;;;1.60;99.90;;;;;;5100640;28;20048;-66
2021/12/06 07:54:58;;;;;;;34.38;18.85;;;1.60;99.90;;;;;;5111700;28;20058;-66
2021/12/06 07:57:27;;;;;;;49.20;20.15;;;1.60;99.90;;;;;;5102907;28;20077;-66
2021/12/06 07:59:55;;;;;;;44.90;21.52;;;1.60;99.90;;;;;;5105758;28;20035;-66
2021/12/06 08:02:23;;;;;;;53.30;20.50;;;1.60;99.90;;;;;;5104441;28;20039;-66
2021/12/06 08:05:00;;;;;;;69.72;20.75;;;1.50;99.90;;;;;;5111540;28;20055;-66
2021/12/06 08:07:27;;;;;;;50.40;20.35;;;1.50;99.90;;;;;;5092593;28;20402;-66
2021/12/06 08:09:54;;;;;;;38.90;19.42;;;1.40;99.90;;;;;;5094598;28;20051;-66
2021/12/06 08:12:22;;;;;;;39.67;19.27;;;1.40;99.90;;;;;;5090931;28;20123;-66
2021/12/06 08:14:49;;;;;;;45.70;21.98;;;1.40;99.90;;;;;;5090938;28;20521;-66
2021/12/06 08:17:25;;;;;;;43.17;21.92;;;1.50;99.90;;;;;;5099792;28;20043;-66
2021/12/06 08:19:52;;;;;;;50.20;21.83;;;1.60;99.90;;;;;;5091301;28;20040;-66
2021/12/06 08:22:19;;;;;;;59.13;20.70;;;1.70;99.90;;;;;;5091186;28;20047;-66
2021/12/06 08:24:47;;;;;;;56.00;20.98;;;1.70;99.90;;;;;;5099214;28;20035;-66
2021/12/06 08:27:14;;;;;;;60.30;20.08;;;1.80;99.90;;;;;;5093752;28;20070;-66
2021/12/06 08:29:43;;;;;;;36.92;19.58;;;1.80;99.90;;;;;;5096975;28;20040;-66
2021/12/06 08:32:11;;;;;;;50.42;18.70;;;1.70;99.90;;;;;;5094387;28;20580;-66
2021/12/06 08:34:43;;;;;;;39.55;20.35;;;1.60;99.90;;;;;;5090948;28;20044;-66
2021/12/06 08:37:11;;;;;;;76.03;20.80;;;1.60;99.90;;;;;;5073240;28;20055;-66
2021/12/06 08:39:39;;;;;;;70.88;19.05;;;1.50;99.90;;;;;;5090108;28;20047;-66
2021/12/06 08:42:08;;;;;;;104.38;20.50;;;1.50;99.90;;;;;;5100435;28;20063;-66
2021/12/06 08:44:36;;;;;;;28.30;16.23;;;1.50;99.90;;;;;;5094486;28;20062;-67
2021/12/06 08:47:04;;;;;;;39.30;18.55;;;1.40;99.90;;;;;;5089596;28;20036;-66
2021/12/06 08:49:31;;;;;;;34.88;18.23;;;1.50;99.90;;;;;;5105818;28;20101;-65
2021/12/06 08:52:00;;;;;;;46.88;18.58;;;1.60;99.90;;;;;;5105096;28;20063;-66
2021/12/06 08:54:29;;;;;;;35.75;17.58;;;1.70;99.90;;;;;;5077271;28;20491;-65
2021/12/06 08:56:59;;;;;;;30.85;17.02;;;1.70;99.90;;;;;;5101670;28;20039;-66
2021/12/06 08:59:27;;;;;;;48.85;18.00;;;1.80;99.90;;;;;;5090548;28;20044;-65
2021/12/06 09:01:57;;;;;;;62.38;19.13;;;1.90;99.90;;;;;;5100761;28;20089;-66
2021/12/06 09:04:45;;;;;;;30.55;16.40;;;1.90;99.90;;;;;;5072518;28;20058;-65
2021/12/06 09:07:14;;;;;;;62.38;19.58;;;1.80;99.90;;;;;;5090445;28;20028;-66
2021/12/06 09:09:46;;;;;;;44.85;17.48;;;1.80;99.90;;;;;;5091873;28;20490;-66
2021/12/06 09:12:17;;;;;;;27.60;15.43;;;1.90;99.90;;;;;;5071548;28;20578;-68
2021/12/06 09:14:45;;;;;;;29.55;17.38;;;1.90;99.90;;;;;;5090361;28;20056;-68
2021/12/06 09:17:14;;;;;;;36.80;17.90;;;1.90;99.90;;;;;;5102106;28;20094;-68
2021/12/06 09:19:42;;;;;;;34.78;17.40;;;1.90;99.90;;;;;;5101353;28;20380;-68
2021/12/06 09:22:09;;;;;;;28.08;16.52;;;1.90;99.90;;;;;;5094370;28;20032;-67
2021/12/06 09:24:37;;;;;;;27.13;15.75;;;1.90;99.90;;;;;;5102327;28;20498;-67
2021/12/06 09:27:05;;;;;;;26.58;15.13;;;1.90;99.90;;;;;;5113426;28;20059;-67
2021/12/06 09:29:36;;;;;;;30.55;16.42;;;1.90;99.90;;;;;;5104639;28;20148;-67
2021/12/06 09:32:09;;;;;;;30.63;16.02;;;2.00;99.90;;;;;;5100664;28;20048;-67
2021/12/06 09:34:40;;;;;;;33.97;16.67;;;2.00;99.90;;;;;;5107681;28;20397;-68
2021/12/06 09:37:08;;;;;;;37.92;16.50;;;2.10;99.90;;;;;;5093839;28;20050;-67
2021/12/06 09:39:36;;;;;;;27.20;16.50;;;2.10;99.90;;;;;;5111549;28;20069;-67
2021/12/06 09:42:05;;;;;;;35.72;17.02;;;2.10;99.90;;;;;;5101416;28;20059;-67
2021/12/06 09:44:33;;;;;;;28.05;15.95;;;2.20;99.90;;;;;;5100770;28;20070;-67
2021/12/06 09:47:01;;;;;;;34.28;15.95;;;2.20;99.90;;;;;;5102373;28;20393;-67
2021/12/06 09:49:30;;;;;;;45.72;15.52;;;2.20;99.90;;;;;;5093300;28;20491;-67
2021/12/06 09:52:02;;;;;;;28.25;15.50;;;2.20;99.90;;;;;;5077016;28;20044;-66
2021/12/06 09:54:33;;;;;;;32.13;15.82;;;2.20;99.90;;;;;;5110637;28;20043;-67
2021/12/06 09:57:04;;;;;;;29.38;16.35;;;2.10;99.90;;;;;;5106416;28;20067;-67
2021/12/06 09:59:33;;;;;;;38.80;17.20;;;2.10;99.90;;;;;;5096147;28;20031;-66
2021/12/06 10:02:04;;;;;;;29.75;15.73;;;2.10;99.90;;;;;;5109366;28;20406;-66
2021/12/06 10:04:38;;;;;;;49.00;17.35;;;2.10;99.90;;;;;;5111771;28;20478;-67
2021/12/06 10:07:09;;;;;;;35.85;16.23;;;2.10;99.90;;;;;;5093499;28;20127;-67
2021/12/06 10:09:38;;;;;;;30.75;17.05;;;2.00;99.90;;;;;;5103602;28;20142;-66
2021/12/06 10:12:06;;;;;;;33.35;17.73;;;2.00;99.90;;;;;;5101959;28;20051;-67
2021/12/06 10:14:36;;;;;;;59.65;17.10;;;1.90;99.90;;;;;;5092897;28;20040;-67
2021/12/06 10:17:10;;;;;;;33.05;17.75;;;1.80;99.90;;;;;;5106744;28;20052;-67
2021/12/06 10:19:37;;;;;;;30.45;16.02;;;1.80;99.90;;;;;;5098339;28;20383;-67
2021/12/06 10:22:05;;;;;;;26.08;15.32;;;1.80;99.90;;;;;;5095231;28;20040;-67
2021/12/06 10:24:33;;;;;;;26.80;15.23;;;1.80;99.90;;;;;;5092797;28;20152;-66
2021/12/06 10:27:05;;;;;;;33.92;15.82;;;1.90;99.90;;;;;;5104954;28;20048;-66
2021/12/06 10:29:49;;;;;;;29.83;15.60;;;2.00;99.90;;;;;;5091823;28;20044;-66
2021/12/06 10:32:20;;;;;;;29.55;15.95;;;2.00;99.90;;;;;;5091554;28;20043;-67
2021/12/06 10:34:53;;;;;;;32.92;16.80;;;2.10;99.90;;;;;;5099620;28;20146;-67
2021/12/06 10:37:42;;;;;;;25.63;14.98;;;2.10;99.90;;;;;;5108474;28;20520;-67
2021/12/06 10:40:11;;;;;;;27.10;15.05;;;2.20;99.90;;;;;;5100760;28;20268;-67
2021/12/06 10:42:42;;;;;;;22.08;13.45;;;2.30;99.90;;;;;;5105820;28;20495;-67
2021/12/06 10:45:14;;;;;;;21.70;13.60;;;2.40;99.90;;;;;;5091269;28;20493;-68
2021/12/06 10:47:42;;;;;;;26.75;15.10;;;2.30;99.90;;;;;;5092552;28;20040;-68
2021/12/06 10:50:13;;;;;;;24.92;14.48;;;2.20;99.90;;;;;;5099037;28;20044;-68
2021/12/06 10:52:52;;;;;;;25.00;14.90;;;2.20;99.90;;;;;;5110572;28;20055;-67
2021/12/06 10:55:21;;;;;;;25.27;14.82;;;2.20;99.90;;;;;;5096878;28;20297;-68
2021/12/06 10:58:14;;;;;;;24.02;13.65;;;2.40;99.90;;;;;;5112688;28;20101;-69
2021/12/06 11:00:47;;;;;;;24.15;13.90;;;2.60;99.90;;;;;;5098601;28;20039;-67
2021/12/06 11:03:23;;;;;;;25.98;13.52;;;2.80;99.90;;;;;;5107548;28;20086;-67
2021/12/06 11:05:59;;;;;;;23.48;13.63;;;2.90;99.90;;;;;;5104270;28;20123;-67
2021/12/06 11:08:27;;;;;;;22.42;13.75;;;3.00;99.90;;;;;;5103608;28;20040;-67
2021/12/06 11:11:02;;;;;;;21.08;12.95;;;3.20;99.90;;;;;;5103322;28;20131;-67
2021/12/06 11:13:34;;;;;;;22.55;13.40;;;3.30;99.90;;;;;;5091208;28;20043;-64
2021/12/06 11:16:23;;;;;;;24.63;13.93;;;3.40;99.90;;;;;;5139690;22;20140;-67
2021/12/06 11:18:54;;;;;;;20.08;12.70;;;3.30;99.90;;;;;;5107498;28;20101;-64
2021/12/06 11:21:29;;;;;;;28.20;13.87;;;3.20;99.90;;;;;;5112646;28;20521;-67
2021/12/06 11:24:03;;;;;;;23.42;14.18;;;3.00;99.90;;;;;;5111915;28;20048;-68
2021/12/06 11:26:32;;;;;;;21.70;13.95;;;3.10;99.90;;;;;;5112206;28;20035;-68
2021/12/06 11:29:17;;;;;;;23.05;13.93;;;3.20;99.90;;;;;;5095275;28;20043;-68
2021/12/06 11:32:24;;;;;;;21.88;13.23;;;3.20;99.90;;;;;;5090740;28;20047;-69
2021/12/06 11:34:52;;;;;;;22.27;13.95;;;3.10;99.90;;;;;;5085011;28;20514;-68
2021/12/06 11:37:20;;;;;;;22.83;13.98;;;3.10;99.90;;;;;;5088524;28;20036;-68
2021/12/06 11:40:07;;;;;;;22.33;13.95;;;3.20;99.90;;;;;;5092897;28;20036;-68
2021/12/06 11:42:52;;;;;;;24.92;13.25;;;3.20;99.90;;;;;;5091513;28;20787;-68
2021/12/06 11:45:42;;;;;;;24.25;13.70;;;3.30;99.90;;;;;;5091246;28;20487;-69
2021/12/06 11:48:24;;;;;;;23.63;14.15;;;3.40;99.90;;;;;;5088269;28;20139;-68
2021/12/06 11:51:10;;;;;;;21.70;13.07;;;3.40;99.90;;;;;;5089935;28;20122;-68
2021/12/06 11:53:44;;;;;;;21.33;13.18;;;3.50;99.90;;;;;;5084643;28;20500;-68
2021/12/06 11:56:42;;;;;;;24.08;13.43;;;3.50;99.90;;;;;;5088670;28;20085;-68
2021/12/06 11:59:10;;;;;;;25.27;13.15;;;3.60;99.90;;;;;;5088679;28;20036;-68
2021/12/06 12:01:49;;;;;;;18.65;12.40;;;3.70;99.90;;;;;;5062119;28;20428;-67
2021/12/06 12:04:22;;;;;;;22.85;12.88;;;3.80;99.90;;;;;;5080017;28;20085;-67
2021/12/06 12:07:01;;;;;;;23.10;13.20;;;4.00;99.90;;;;;;5073346;28;20055;-67
2021/12/06 12:09:37;;;;;;;26.95;12.57;;;3.90;99.90;;;;;;5082687;28;20039;-67
2021/12/06 12:12:23;;;;;;;20.50;12.35;;;3.90;99.90;;;;;;5081534;28;20036;-67
2021/12/06 12:14:57;;;;;;;20.13;11.52;;;4.00;99.90;;;;;;5090121;28;20040;-67
2021/12/06 12:17:28;;;;;;;19.65;12.70;;;4.20;99.90;;;;;;5089576;28;20051;-66
2021/12/06 12:20:04;;;;;;;18.13;11.68;;;4.40;99.90;;;;;;5084692;28;20515;-67
2021/12/06 12:22:32;;;;;;;19.45;11.45;;;4.60;99.90;;;;;;5089208;28;20425;-67
2021/12/06 12:25:07;;;;;;;20.60;11.90;;;4.70;99.90;;;;;;5087137;28;20047;-67
2021/12/06 12:27:47;;;;;;;22.55;12.88;;;4.80;99.90;;;;;;5062570;28;20037;-67
2021/12/06 12:30:14;;;;;;;17.92;10.60;;;4.80;99.90;;;;;;5079294;28;20520;-67
2021/12/06 12:32:42;;;;;;;17.95;10.88;;;4.90;99.90;;;;;;5088402;28;20570;-66
2021/12/06 12:35:15;;;;;;;20.98;12.00;;;5.00;99.90;;;;;;5089357;28;20036;-66
2021/12/06 12:37:44;;;;;;;19.92;12.65;;;5.00;99.90;;;;;;5090813;28;20075;-67
2021/12/06 12:40:20;;;;;;;21.85;12.25;;;4.90;99.90;;;;;;5085682;28;20387;-67
2021/12/06 12:42:59;;;;;;;18.30;11.80;;;4.90;99.90;;;;;;5098633;28;20043;-68
2021/12/06 12:45:35;;;;;;;20.45;12.05;;;5.00;99.90;;;;;;5069650;28;20040;-68
2021/12/06 12:48:03;;;;;;;20.70;11.82;;;5.40;99.90;;;;;;5090996;28;20036;-67
2021/12/06 12:50:30;;;;;;;21.88;12.35;;;5.70;99.90;;;;;;5090357;28;20397;-67
2021/12/06 12:53:09;;;;;;;19.05;11.25;;;5.70;99.90;;;;;;5069102;28;20044;-66
2021/12/06 12:55:49;;;;;;;18.05;11.20;;;5.90;99.90;;;;;;5079963;28;20123;-63
2021/12/06 12:58:23;;;;;;;18.83;11.02;;;6.50;99.90;;;;;;5093367;28;20052;-66
2021/12/06 13:01:11;;;;;;;16.02;9.93;;;7.30;99.90;;;;;;5080135;28;20036;-65
2021/12/06 13:03:50;;;;;;;18.48;10.27;;;7.70;99.90;;;;;;5093754;28;20038;-65
2021/12/06 13:06:33;;;;;;;16.52;10.43;;;8.00;99.90;;;;;;5084936;28;20678;-65
2021/12/06 13:09:08;;;;;;;18.05;10.25;;;8.10;99.90;;;;;;5093067;28;20032;-64